Terminal Aerodrome Forecast
Issued by NWS Upton, NY

Home | Current Version | Previous Version | Text Only | Print | Product List | Glossary On
Versions: 1 2 3 4 5 6 7 8 9 10 11 12 13 14 15 16 17 18 19 20 21 22 23 24 25 26 27 28 29 30 31 32 33 34 35 36 37 38 39 40 41 42 43 44 45 46 47 48 49 50
000
FTUS41 KOKX 301736
TAFEWR
TAF
KEWR 301736Z 3018/3124 VRB04KT P6SM OVC012
     FM301900 VRB05KT P6SM VCSH BKN015 BKN030
     FM302000 VRB05KT P6SM SHRA BKN020 OVC035
     FM310100 34005KT P6SM VCSH SCT015 OVC035
     FM310600 02008KT P6SM VCSH OVC015
     FM311600 06007KT P6SM OVC035
     FM312100 14006KT P6SM BKN050=

USA.gov is the U.S. government's official web portal to all federal, state and local government web resources and services.